CES2 weather

St-Esprit Aerodrome
St-Esprit, Quebec, Canada

Public forecast

Using degrees Celsius for public forecast. Weather courtesy of forecast.io.

METAR (pilot weather report)

Closest report is Montreal International (Mirabel) Airport, 20.8 nm (38.6 km) SW. Retrieved 2019/07/23 16:00 UTC (43 minutes ago):

CYMX 231600Z 24005KT 200V310 45SM FEW040 FEW120 FEW250 24/15 A2982 RMK CU2AC1CI1 AC TR CI TR SLP101 DENSITY ALT 1500FT

TAF (pilot weather forecast)

Closest forecast is Montreal International (Mirabel) Airport, 20.8 nm (38.6 km) SW. Retrieved 2019/07/23 12:42 UTC (4 hours ago):

TAF CYMX 231140Z 2312/2412 VRB03KT P6SM FEW120 FEW250 BECMG 2313/2315 24006KT FM231700 27008KT P6SM BKN070 BECMG 2322/2324 31005KT FM240200 VRB03KT P6SM FEW050 RMK NXT FCST BY 231800Z